Terminal Aerodrome Forecast
Issued by NWS Wichita, KS

Home | Current Version | Previous Version | Graphics & Text | Print | Product List | Glossary On
Versions: 1 2 3 4 5 6 7 8 9 10 11 12 13 14 15 16 17
000
FTUS43 KICT 251122
TAFICT
TAF
KICT 251122Z 2512/2612 31010KT P6SM VCSH SCT025 BKN035
     FM251300 35012KT P6SM BKN040
     FM251500 36014G22KT P6SM BKN070
     FM260000 35007KT P6SM SKC=

USA.gov is the U.S. government's official web portal to all federal, state and local government web resources and services.